sensor_id;sensor_type;location;lat;lon;timestamp;pressure;altitude;pressure_sealevel;temperature;humidity
12775;BME280;6451;42.630;23.382;2022-09-09T00:02:02;94655.19;;;17.76;100.00
12775;BME280;6451;42.630;23.382;2022-09-09T00:04:31;94656.00;;;17.80;100.00
12775;BME280;6451;42.630;23.382;2022-09-09T00:07:04;94622.34;;;17.32;100.00
12775;BME280;6451;42.630;23.382;2022-09-09T00:09:38;94647.97;;;17.54;100.00
12775;BME280;6451;42.630;23.382;2022-09-09T00:12:11;94644.84;;;17.55;100.00
12775;BME280;6451;42.630;23.382;2022-09-09T00:14:46;94631.06;;;17.41;100.00
12775;BME280;6451;42.630;23.382;2022-09-09T00:17:22;94617.97;;;17.20;100.00
12775;BME280;6451;42.630;23.382;2022-09-09T00:19:55;94638.53;;;17.47;100.00
12775;BME280;6451;42.630;23.382;2022-09-09T00:22:25;94610.19;;;17.29;100.00
12775;BME280;6451;42.630;23.382;2022-09-09T00:24:55;94641.31;;;17.55;100.00
12775;BME280;6451;42.630;23.382;2022-09-09T00:27:29;94526.03;;;16.78;100.00
12775;BME280;6451;42.630;23.382;2022-09-09T00:30:13;94581.53;;;17.19;100.00
12775;BME280;6451;42.630;23.382;2022-09-09T00:32:43;94631.47;;;17.43;100.00
12775;BME280;6451;42.630;23.382;2022-09-09T00:35:17;94628.66;;;17.36;100.00
12775;BME280;6451;42.630;23.382;2022-09-09T00:37:46;94635.66;;;17.26;100.00
12775;BME280;6451;42.630;23.382;2022-09-09T00:40:22;94595.50;;;17.00;100.00
12775;BME280;6451;42.630;23.382;2022-09-09T00:42:58;94619.44;;;17.07;100.00
12775;BME280;6451;42.630;23.382;2022-09-09T00:45:49;94622.19;;;17.07;100.00
12775;BME280;6451;42.630;23.382;2022-09-09T00:48:22;94589.84;;;16.79;100.00
12775;BME280;6451;42.630;23.382;2022-09-09T00:50:54;94581.59;;;16.72;100.00
12775;BME280;6451;42.630;23.382;2022-09-09T00:53:31;94605.94;;;16.80;100.00
12775;BME280;6451;42.630;23.382;2022-09-09T00:56:11;94600.78;;;16.72;100.00
12775;BME280;6451;42.630;23.382;2022-09-09T00:58:40;94611.34;;;16.73;100.00
12775;BME280;6451;42.630;23.382;2022-09-09T01:01:10;94616.34;;;16.64;100.00
12775;BME280;6451;42.630;23.382;2022-09-09T01:03:45;94616.63;;;16.55;100.00
12775;BME280;6451;42.630;23.382;2022-09-09T01:06:16;94613.09;;;16.51;100.00
12775;BME280;6451;42.630;23.382;2022-09-09T01:08:55;94608.00;;;16.50;100.00
12775;BME280;6451;42.630;23.382;2022-09-09T01:11:26;94615.41;;;16.49;100.00
12775;BME280;6451;42.630;23.382;2022-09-09T01:13:58;94614.59;;;16.45;100.00
12775;BME280;6451;42.630;23.382;2022-09-09T01:16:28;94607.84;;;16.35;100.00
12775;BME280;6451;42.630;23.382;2022-09-09T01:18:59;94608.22;;;16.34;100.00
12775;BME280;6451;42.630;23.382;2022-09-09T01:21:35;94621.63;;;16.46;100.00
12775;BME280;6451;42.630;23.382;2022-09-09T01:24:20;94625.13;;;16.43;100.00
12775;BME280;6451;42.630;23.382;2022-09-09T01:26:52;94604.31;;;16.35;100.00
12775;BME280;6451;42.630;23.382;2022-09-09T01:29:21;94626.38;;;16.49;100.00
12775;BME280;6451;42.630;23.382;2022-09-09T01:31:54;94616.22;;;16.53;100.00
12775;BME280;6451;42.630;23.382;2022-09-09T01:34:23;94607.28;;;16.56;100.00
12775;BME280;6451;42.630;23.382;2022-09-09T01:36:55;94606.53;;;16.63;100.00
12775;BME280;6451;42.630;23.382;2022-09-09T01:39:24;94618.88;;;16.83;100.00
12775;BME280;6451;42.630;23.382;2022-09-09T01:41:53;94618.09;;;16.86;100.00
12775;BME280;6451;42.630;23.382;2022-09-09T01:44:22;94622.53;;;17.02;100.00
12775;BME280;6451;42.630;23.382;2022-09-09T01:46:49;94613.91;;;16.96;100.00
12775;BME280;6451;42.630;23.382;2022-09-09T01:49:16;94617.03;;;16.98;100.00
12775;BME280;6451;42.630;23.382;2022-09-09T01:51:46;94625.69;;;17.04;100.00
12775;BME280;6451;42.630;23.382;2022-09-09T01:54:15;94597.34;;;16.85;100.00
12775;BME280;6451;42.630;23.382;2022-09-09T01:56:48;94625.25;;;16.98;100.00
12775;BME280;6451;42.630;23.382;2022-09-09T02:02:19;94626.03;;;16.99;100.00
12775;BME280;6451;42.630;23.382;2022-09-09T02:04:50;94630.00;;;17.05;100.00
12775;BME280;6451;42.630;23.382;2022-09-09T02:07:31;94617.88;;;17.09;100.00
12775;BME280;6451;42.630;23.382;2022-09-09T02:10:09;94626.22;;;17.20;100.00
12775;BME280;6451;42.630;23.382;2022-09-09T02:12:40;94603.28;;;16.91;100.00
12775;BME280;6451;42.630;23.382;2022-09-09T02:15:18;94610.69;;;16.87;100.00
12775;BME280;6451;42.630;23.382;2022-09-09T02:17:49;94621.28;;;16.92;100.00
12775;BME280;6451;42.630;23.382;2022-09-09T02:20:20;94628.00;;;16.98;100.00
12775;BME280;6451;42.630;23.382;2022-09-09T02:22:50;94623.16;;;16.81;100.00
12775;BME280;6451;42.630;23.382;2022-09-09T02:25:19;94614.84;;;16.70;100.00
12775;BME280;6451;42.630;23.382;2022-09-09T02:27:49;94600.63;;;16.57;100.00
12775;BME280;6451;42.630;23.382;2022-09-09T02:30:18;94603.25;;;16.47;100.00
12775;BME280;6451;42.630;23.382;2022-09-09T02:32:48;94609.97;;;16.53;100.00
12775;BME280;6451;42.630;23.382;2022-09-09T02:35:19;94597.38;;;16.45;100.00
12775;BME280;6451;42.630;23.382;2022-09-09T02:37:51;94621.00;;;16.63;100.00
12775;BME280;6451;42.630;23.382;2022-09-09T02:40:20;94622.50;;;16.54;100.00
12775;BME280;6451;42.630;23.382;2022-09-09T02:42:49;94617.72;;;16.47;100.00
12775;BME280;6451;42.630;23.382;2022-09-09T02:45:19;94614.56;;;16.42;100.00
12775;BME280;6451;42.630;23.382;2022-09-09T02:47:59;94627.03;;;16.39;100.00
12775;BME280;6451;42.630;23.382;2022-09-09T02:50:33;94619.06;;;16.23;100.00
12775;BME280;6451;42.630;23.382;2022-09-09T02:53:07;94639.94;;;16.35;100.00
12775;BME280;6451;42.630;23.382;2022-09-09T02:55:39;94636.44;;;16.38;100.00
12775;BME280;6451;42.630;23.382;2022-09-09T02:58:10;94641.16;;;16.41;100.00
12775;BME280;6451;42.630;23.382;2022-09-09T03:00:40;94615.22;;;16.31;100.00
12775;BME280;6451;42.630;23.382;2022-09-09T03:03:08;94632.56;;;16.43;100.00
12775;BME280;6451;42.630;23.382;2022-09-09T03:05:35;94630.22;;;16.45;100.00
12775;BME280;6451;42.630;23.382;2022-09-09T03:08:02;94639.75;;;16.58;100.00
12775;BME280;6451;42.630;23.382;2022-09-09T03:10:30;94635.19;;;16.69;100.00
12775;BME280;6451;42.630;23.382;2022-09-09T03:12:58;94642.53;;;16.61;100.00
12775;BME280;6451;42.630;23.382;2022-09-09T03:15:26;94648.78;;;16.58;100.00
12775;BME280;6451;42.630;23.382;2022-09-09T03:17:58;94646.75;;;16.55;100.00
12775;BME280;6451;42.630;23.382;2022-09-09T03:20:27;94628.28;;;16.45;100.00
12775;BME280;6451;42.630;23.382;2022-09-09T03:22:56;94646.38;;;16.53;100.00
12775;BME280;6451;42.630;23.382;2022-09-09T03:25:23;94633.44;;;16.54;100.00
12775;BME280;6451;42.630;23.382;2022-09-09T03:27:51;94645.97;;;16.51;100.00
12775;BME280;6451;42.630;23.382;2022-09-09T03:30:20;94633.00;;;16.48;100.00
12775;BME280;6451;42.630;23.382;2022-09-09T03:32:47;94639.25;;;16.45;100.00
12775;BME280;6451;42.630;23.382;2022-09-09T03:35:15;94610.06;;;16.23;100.00
12775;BME280;6451;42.630;23.382;2022-09-09T03:37:43;94645.50;;;16.46;100.00
12775;BME280;6451;42.630;23.382;2022-09-09T03:40:11;94627.03;;;16.35;100.00
12775;BME280;6451;42.630;23.382;2022-09-09T03:42:39;94627.31;;;16.27;100.00
12775;BME280;6451;42.630;23.382;2022-09-09T03:45:08;94648.53;;;16.37;100.00
12775;BME280;6451;42.630;23.382;2022-09-09T03:47:36;94639.09;;;16.31;100.00
12775;BME280;6451;42.630;23.382;2022-09-09T03:50:05;94624.91;;;16.22;100.00
12775;BME280;6451;42.630;23.382;2022-09-09T03:52:36;94643.44;;;16.35;100.00
12775;BME280;6451;42.630;23.382;2022-09-09T03:55:03;94654.00;;;16.33;100.00
12775;BME280;6451;42.630;23.382;2022-09-09T03:57:31;94627.19;;;16.16;100.00
12775;BME280;6451;42.630;23.382;2022-09-09T04:00:00;94609.09;;;16.04;100.00
12775;BME280;6451;42.630;23.382;2022-09-09T04:02:28;94650.81;;;16.28;100.00
12775;BME280;6451;42.630;23.382;2022-09-09T04:04:55;94657.00;;;16.25;100.00
12775;BME280;6451;42.630;23.382;2022-09-09T04:07:21;94666.38;;;16.24;100.00
12775;BME280;6451;42.630;23.382;2022-09-09T04:09:52;94661.28;;;16.22;100.00
12775;BME280;6451;42.630;23.382;2022-09-09T04:12:19;94593.50;;;15.75;100.00
12775;BME280;6451;42.630;23.382;2022-09-09T04:14:47;94659.75;;;16.25;100.00
12775;BME280;6451;42.630;23.382;2022-09-09T04:17:14;94652.59;;;16.13;100.00
12775;BME280;6451;42.630;23.382;2022-09-09T04:19:41;94660.25;;;16.34;100.00
12775;BME280;6451;42.630;23.382;2022-09-09T04:22:08;94626.06;;;16.21;100.00
12775;BME280;6451;42.630;23.382;2022-09-09T04:24:35;94629.69;;;16.32;100.00
12775;BME280;6451;42.630;23.382;2022-09-09T04:27:04;94646.66;;;16.45;100.00
12775;BME280;6451;42.630;23.382;2022-09-09T04:29:31;94641.34;;;16.59;100.00
12775;BME280;6451;42.630;23.382;2022-09-09T04:31:58;94643.31;;;16.62;100.00
12775;BME280;6451;42.630;23.382;2022-09-09T04:34:25;94647.06;;;16.80;100.00
12775;BME280;6451;42.630;23.382;2022-09-09T04:36:52;94631.41;;;16.81;100.00
12775;BME280;6451;42.630;23.382;2022-09-09T04:39:19;94644.06;;;16.96;100.00
12775;BME280;6451;42.630;23.382;2022-09-09T04:41:46;94641.31;;;17.00;100.00
12775;BME280;6451;42.630;23.382;2022-09-09T04:44:17;94644.91;;;17.07;100.00
12775;BME280;6451;42.630;23.382;2022-09-09T04:46:44;94655.06;;;17.03;100.00
12775;BME280;6451;42.630;23.382;2022-09-09T04:49:10;94666.69;;;16.89;100.00
12775;BME280;6451;42.630;23.382;2022-09-09T04:51:37;94664.31;;;16.84;100.00
12775;BME280;6451;42.630;23.382;2022-09-09T04:54:04;94647.06;;;16.84;100.00
12775;BME280;6451;42.630;23.382;2022-09-09T04:56:31;94625.91;;;16.81;100.00
12775;BME280;6451;42.630;23.382;2022-09-09T04:58:58;94634.94;;;16.85;100.00
12775;BME280;6451;42.630;23.382;2022-09-09T05:01:26;94633.81;;;16.93;100.00
12775;BME280;6451;42.630;23.382;2022-09-09T05:03:54;94621.75;;;17.01;100.00
12775;BME280;6451;42.630;23.382;2022-09-09T05:06:21;94598.13;;;16.86;100.00
12775;BME280;6451;42.630;23.382;2022-09-09T05:08:55;94623.84;;;17.18;100.00
12775;BME280;6451;42.630;23.382;2022-09-09T05:11:24;94619.63;;;17.32;100.00
12775;BME280;6451;42.630;23.382;2022-09-09T05:13:53;94609.94;;;17.48;100.00
12775;BME280;6451;42.630;23.382;2022-09-09T05:16:20;94598.44;;;17.29;100.00
12775;BME280;6451;42.630;23.382;2022-09-09T05:18:49;94561.91;;;17.14;100.00
12775;BME280;6451;42.630;23.382;2022-09-09T05:21:18;94565.13;;;17.27;100.00
12775;BME280;6451;42.630;23.382;2022-09-09T05:23:45;94577.84;;;17.60;100.00
12775;BME280;6451;42.630;23.382;2022-09-09T05:26:15;94596.81;;;17.90;100.00
12775;BME280;6451;42.630;23.382;2022-09-09T05:28:42;94604.75;;;18.13;100.00
12775;BME280;6451;42.630;23.382;2022-09-09T05:31:10;94463.28;;;17.32;100.00
12775;BME280;6451;42.630;23.382;2022-09-09T05:33:38;94591.44;;;18.32;100.00
12775;BME280;6451;42.630;23.382;2022-09-09T05:36:08;94580.84;;;18.27;100.00
12775;BME280;6451;42.630;23.382;2022-09-09T05:38:37;94603.28;;;18.51;100.00
12775;BME280;6451;42.630;23.382;2022-09-09T05:41:04;94596.66;;;18.73;100.00
12775;BME280;6451;42.630;23.382;2022-09-09T05:43:31;94604.91;;;18.98;100.00
12775;BME280;6451;42.630;23.382;2022-09-09T05:46:03;94575.03;;;19.07;100.00
12775;BME280;6451;42.630;23.382;2022-09-09T05:48:31;94591.13;;;19.30;100.00
12775;BME280;6451;42.630;23.382;2022-09-09T05:51:00;94604.09;;;19.30;100.00
12775;BME280;6451;42.630;23.382;2022-09-09T05:53:30;94609.56;;;19.51;100.00
12775;BME280;6451;42.630;23.382;2022-09-09T05:56:00;94614.22;;;19.83;100.00
12775;BME280;6451;42.630;23.382;2022-09-09T05:58:29;94598.09;;;19.81;100.00
12775;BME280;6451;42.630;23.382;2022-09-09T06:01:03;94584.03;;;19.40;100.00
12775;BME280;6451;42.630;23.382;2022-09-09T06:03:32;94609.13;;;19.74;100.00
12775;BME280;6451;42.630;23.382;2022-09-09T06:06:00;94611.06;;;19.84;100.00
12775;BME280;6451;42.630;23.382;2022-09-09T06:08:29;94629.50;;;20.02;100.00
12775;BME280;6451;42.630;23.382;2022-09-09T06:11:01;94624.75;;;20.09;100.00
12775;BME280;6451;42.630;23.382;2022-09-09T06:13:29;94629.47;;;20.12;100.00
12775;BME280;6451;42.630;23.382;2022-09-09T06:15:56;94631.06;;;20.06;100.00
12775;BME280;6451;42.630;23.382;2022-09-09T06:18:25;94623.13;;;20.15;100.00
12775;BME280;6451;42.630;23.382;2022-09-09T06:21:00;94612.50;;;20.21;100.00
12775;BME280;6451;42.630;23.382;2022-09-09T06:23:30;94622.28;;;20.33;100.00
12775;BME280;6451;42.630;23.382;2022-09-09T06:26:04;94623.53;;;20.17;100.00
12775;BME280;6451;42.630;23.382;2022-09-09T06:28:32;94624.59;;;20.41;100.00
12775;BME280;6451;42.630;23.382;2022-09-09T06:30:59;94625.63;;;20.69;100.00
12775;BME280;6451;42.630;23.382;2022-09-09T06:33:26;94621.63;;;20.80;100.00
12775;BME280;6451;42.630;23.382;2022-09-09T06:35:56;94614.25;;;20.63;100.00
12775;BME280;6451;42.630;23.382;2022-09-09T06:38:23;94616.47;;;20.82;100.00
12775;BME280;6451;42.630;23.382;2022-09-09T06:40:53;94617.13;;;21.01;100.00
12775;BME280;6451;42.630;23.382;2022-09-09T06:43:21;94606.06;;;21.04;100.00
12775;BME280;6451;42.630;23.382;2022-09-09T06:45:55;94612.78;;;21.03;100.00
12775;BME280;6451;42.630;23.382;2022-09-09T06:48:22;94592.28;;;21.01;100.00
12775;BME280;6451;42.630;23.382;2022-09-09T06:51:00;94614.53;;;21.31;100.00
12775;BME280;6451;42.630;23.382;2022-09-09T06:53:29;94607.00;;;21.35;100.00
12775;BME280;6451;42.630;23.382;2022-09-09T06:55:57;94624.72;;;21.38;100.00
12775;BME280;6451;42.630;23.382;2022-09-09T06:58:25;94620.44;;;21.33;100.00
12775;BME280;6451;42.630;23.382;2022-09-09T07:00:52;94613.84;;;21.65;100.00
12775;BME280;6451;42.630;23.382;2022-09-09T07:03:19;94626.38;;;21.70;100.00
12775;BME280;6451;42.630;23.382;2022-09-09T07:05:54;94619.84;;;21.90;100.00
12775;BME280;6451;42.630;23.382;2022-09-09T07:08:21;94626.44;;;22.04;100.00
12775;BME280;6451;42.630;23.382;2022-09-09T07:10:48;94626.50;;;21.62;100.00
12775;BME280;6451;42.630;23.382;2022-09-09T07:13:18;94628.69;;;21.78;100.00
12775;BME280;6451;42.630;23.382;2022-09-09T07:15:46;94625.69;;;21.62;100.00
12775;BME280;6451;42.630;23.382;2022-09-09T07:18:13;94611.84;;;21.65;100.00
12775;BME280;6451;42.630;23.382;2022-09-09T07:20:40;94602.72;;;21.72;100.00
12775;BME280;6451;42.630;23.382;2022-09-09T07:23:08;94622.91;;;22.00;100.00
12775;BME280;6451;42.630;23.382;2022-09-09T07:25:35;94618.41;;;22.16;100.00
12775;BME280;6451;42.630;23.382;2022-09-09T07:28:02;94620.63;;;21.95;100.00
12775;BME280;6451;42.630;23.382;2022-09-09T07:30:30;94623.72;;;22.34;100.00
12775;BME280;6451;42.630;23.382;2022-09-09T07:32:57;94606.97;;;22.14;100.00
12775;BME280;6451;42.630;23.382;2022-09-09T07:35:26;94601.50;;;22.11;100.00
12775;BME280;6451;42.630;23.382;2022-09-09T07:37:53;94608.22;;;22.40;100.00
12775;BME280;6451;42.630;23.382;2022-09-09T07:40:20;94614.34;;;22.55;100.00
12775;BME280;6451;42.630;23.382;2022-09-09T07:42:47;94605.75;;;22.46;100.00
12775;BME280;6451;42.630;23.382;2022-09-09T07:45:14;94606.94;;;22.75;100.00
12775;BME280;6451;42.630;23.382;2022-09-09T07:47:44;94622.63;;;22.86;100.00
12775;BME280;6451;42.630;23.382;2022-09-09T07:50:11;94612.72;;;23.12;100.00
12775;BME280;6451;42.630;23.382;2022-09-09T07:52:39;94615.03;;;23.17;100.00
12775;BME280;6451;42.630;23.382;2022-09-09T07:55:06;94620.50;;;23.20;100.00
12775;BME280;6451;42.630;23.382;2022-09-09T07:57:34;94614.84;;;23.51;100.00
12775;BME280;6451;42.630;23.382;2022-09-09T08:00:02;94609.16;;;22.84;100.00
12775;BME280;6451;42.630;23.382;2022-09-09T08:02:30;94623.88;;;23.08;100.00
12775;BME280;6451;42.630;23.382;2022-09-09T08:04:58;94615.31;;;23.46;100.00
12775;BME280;6451;42.630;23.382;2022-09-09T08:07:25;94595.75;;;23.80;100.00
12775;BME280;6451;42.630;23.382;2022-09-09T08:09:52;94617.28;;;23.92;100.00
12775;BME280;6451;42.630;23.382;2022-09-09T08:12:19;94618.47;;;23.91;99.53
12775;BME280;6451;42.630;23.382;2022-09-09T08:14:47;94617.22;;;23.96;98.57
12775;BME280;6451;42.630;23.382;2022-09-09T08:17:15;94610.25;;;23.88;98.71
12775;BME280;6451;42.630;23.382;2022-09-09T08:19:41;94609.47;;;23.87;100.00
12775;BME280;6451;42.630;23.382;2022-09-09T08:22:11;94605.34;;;23.95;99.73
12775;BME280;6451;42.630;23.382;2022-09-09T08:24:38;94608.69;;;24.06;97.75
12775;BME280;6451;42.630;23.382;2022-09-09T08:27:05;94614.09;;;24.13;98.82
12775;BME280;6451;42.630;23.382;2022-09-09T08:29:32;94612.75;;;24.42;97.80
12775;BME280;6451;42.630;23.382;2022-09-09T08:32:00;94617.34;;;24.84;94.72
12775;BME280;6451;42.630;23.382;2022-09-09T08:34:27;94614.81;;;25.26;90.19
12775;BME280;6451;42.630;23.382;2022-09-09T08:36:56;94608.50;;;24.89;89.59
12775;BME280;6451;42.630;23.382;2022-09-09T08:39:24;94615.28;;;24.88;87.82
12775;BME280;6451;42.630;23.382;2022-09-09T08:42:06;94610.50;;;24.89;88.86
12775;BME280;6451;42.630;23.382;2022-09-09T08:44:52;94448.56;;;23.74;90.99
12775;BME280;6451;42.630;23.382;2022-09-09T08:47:28;94609.38;;;24.70;89.64
12775;BME280;6451;42.630;23.382;2022-09-09T08:50:13;94608.50;;;24.89;90.20
12775;BME280;6451;42.630;23.382;2022-09-09T08:52:49;94596.50;;;24.60;88.84
12775;BME280;6451;42.630;23.382;2022-09-09T08:55:25;94603.28;;;25.28;86.95
12775;BME280;6451;42.630;23.382;2022-09-09T08:57:55;94601.50;;;25.01;84.34
12775;BME280;6451;42.630;23.382;2022-09-09T09:00:32;94596.50;;;25.12;87.50
12775;BME280;6451;42.630;23.382;2022-09-09T09:03:07;94598.00;;;25.17;87.88
12775;BME280;6451;42.630;23.382;2022-09-09T09:05:45;94596.84;;;25.14;87.39
12775;BME280;6451;42.630;23.382;2022-09-09T09:08:19;94602.91;;;25.42;84.00
12775;BME280;6451;42.630;23.382;2022-09-09T09:10:50;94597.78;;;25.57;83.62
12775;BME280;6451;42.630;23.382;2022-09-09T09:13:20;94598.94;;;25.27;83.75
12775;BME280;6451;42.630;23.382;2022-09-09T09:15:50;94603.97;;;25.32;84.60
12775;BME280;6451;42.630;23.382;2022-09-09T09:18:19;94585.47;;;25.41;84.46
12775;BME280;6451;42.630;23.382;2022-09-09T09:20:50;94595.03;;;25.40;84.37
12775;BME280;6451;42.630;23.382;2022-09-09T09:23:22;94600.63;;;26.27;80.40
12775;BME280;6451;42.630;23.382;2022-09-09T09:25:56;94592.34;;;25.82;80.25
12775;BME280;6451;42.630;23.382;2022-09-09T09:28:28;94562.09;;;26.13;77.29
12775;BME280;6451;42.630;23.382;2022-09-09T09:31:01;94586.69;;;26.15;79.46
12775;BME280;6451;42.630;23.382;2022-09-09T09:33:34;94604.16;;;26.44;76.62
12775;BME280;6451;42.630;23.382;2022-09-09T09:36:04;94597.97;;;26.37;77.04
12775;BME280;6451;42.630;23.382;2022-09-09T09:38:34;94599.41;;;26.28;74.86
12775;BME280;6451;42.630;23.382;2022-09-09T09:41:03;94599.63;;;26.63;75.30
12775;BME280;6451;42.630;23.382;2022-09-09T09:43:32;94595.88;;;25.99;77.91
12775;BME280;6451;42.630;23.382;2022-09-09T09:46:00;94588.75;;;25.52;78.89
12775;BME280;6451;42.630;23.382;2022-09-09T09:48:29;94573.13;;;26.17;77.46
12775;BME280;6451;42.630;23.382;2022-09-09T09:51:00;94580.50;;;26.36;77.48
12775;BME280;6451;42.630;23.382;2022-09-09T09:53:32;94566.41;;;26.43;76.91
12775;BME280;6451;42.630;23.382;2022-09-09T09:56:04;94572.81;;;26.69;75.93
12775;BME280;6451;42.630;23.382;2022-09-09T09:58:33;94568.78;;;26.96;72.99
12775;BME280;6451;42.630;23.382;2022-09-09T10:01:04;94566.22;;;26.63;73.03
12775;BME280;6451;42.630;23.382;2022-09-09T10:03:33;94567.44;;;26.87;72.39
12775;BME280;6451;42.630;23.382;2022-09-09T10:06:03;94566.53;;;26.91;70.87
12775;BME280;6451;42.630;23.382;2022-09-09T10:08:34;94556.63;;;27.02;72.60
12775;BME280;6451;42.630;23.382;2022-09-09T10:11:30;94574.47;;;26.54;75.19
12775;BME280;6451;42.630;23.382;2022-09-09T10:14:08;94583.22;;;26.52;75.59
12775;BME280;6451;42.630;23.382;2022-09-09T10:16:52;94572.34;;;26.58;75.14
12775;BME280;6451;42.630;23.382;2022-09-09T10:19:29;94575.25;;;26.54;74.63
12775;BME280;6451;42.630;23.382;2022-09-09T10:22:19;94578.47;;;25.82;78.13
12775;BME280;6451;42.630;23.382;2022-09-09T10:25:13;94578.44;;;26.11;78.84
12775;BME280;6451;42.630;23.382;2022-09-09T10:27:54;94581.38;;;25.91;80.25
12775;BME280;6451;42.630;23.382;2022-09-09T10:30:29;94581.94;;;26.15;77.61
12775;BME280;6451;42.630;23.382;2022-09-09T10:33:05;94579.47;;;25.88;76.97
12775;BME280;6451;42.630;23.382;2022-09-09T10:35:39;94578.75;;;26.00;77.26
12775;BME280;6451;42.630;23.382;2022-09-09T10:38:16;94582.53;;;25.94;77.62
12775;BME280;6451;42.630;23.382;2022-09-09T10:40:59;94595.78;;;25.73;81.02
12775;BME280;6451;42.630;23.382;2022-09-09T10:43:44;94580.72;;;25.87;79.22
12775;BME280;6451;42.630;23.382;2022-09-09T10:46:17;94587.50;;;25.70;80.10
12775;BME280;6451;42.630;23.382;2022-09-09T10:49:13;94582.81;;;25.67;81.25
12775;BME280;6451;42.630;23.382;2022-09-09T10:51:49;94575.16;;;25.71;81.21
12775;BME280;6451;42.630;23.382;2022-09-09T10:54:26;94577.88;;;25.74;81.22
12775;BME280;6451;42.630;23.382;2022-09-09T10:57:00;94571.06;;;25.92;81.10
12775;BME280;6451;42.630;23.382;2022-09-09T10:59:33;94584.94;;;25.46;84.08
12775;BME280;6451;42.630;23.382;2022-09-09T11:02:11;94580.69;;;25.42;84.52
12775;BME280;6451;42.630;23.382;2022-09-09T11:04:43;94579.28;;;25.50;85.12
12775;BME280;6451;42.630;23.382;2022-09-09T11:07:16;94583.97;;;25.53;83.90
12775;BME280;6451;42.630;23.382;2022-09-09T11:09:54;94535.50;;;25.09;84.12
12775;BME280;6451;42.630;23.382;2022-09-09T11:12:23;94569.06;;;25.14;85.86
12775;BME280;6451;42.630;23.382;2022-09-09T11:14:56;94588.50;;;25.47;84.83
12775;BME280;6451;42.630;23.382;2022-09-09T11:17:32;94593.19;;;25.34;86.33
12775;BME280;6451;42.630;23.382;2022-09-09T11:20:05;94558.91;;;25.40;84.50
12775;BME280;6451;42.630;23.382;2022-09-09T11:22:34;94577.94;;;25.71;83.79
12775;BME280;6451;42.630;23.382;2022-09-09T11:25:07;94572.47;;;25.67;82.66
12775;BME280;6451;42.630;23.382;2022-09-09T11:27:41;94572.25;;;25.91;81.87
12775;BME280;6451;42.630;23.382;2022-09-09T11:30:18;94556.84;;;26.02;81.04
12775;BME280;6451;42.630;23.382;2022-09-09T11:33:02;94559.66;;;26.15;81.88
12775;BME280;6451;42.630;23.382;2022-09-09T11:35:40;94549.44;;;25.83;84.75
12775;BME280;6451;42.630;23.382;2022-09-09T11:38:18;94542.22;;;25.86;84.21
12775;BME280;6451;42.630;23.382;2022-09-09T11:40:46;94492.38;;;25.49;85.66
12775;BME280;6451;42.630;23.382;2022-09-09T11:43:14;94532.22;;;25.88;85.33
12775;BME280;6451;42.630;23.382;2022-09-09T11:45:50;94536.22;;;25.87;85.19
12775;BME280;6451;42.630;23.382;2022-09-09T11:48:28;94512.19;;;25.81;84.26
12775;BME280;6451;42.630;23.382;2022-09-09T11:51:02;94500.44;;;26.02;83.21
12775;BME280;6451;42.630;23.382;2022-09-09T11:53:31;94497.34;;;26.13;83.39
12775;BME280;6451;42.630;23.382;2022-09-09T11:56:23;94500.59;;;26.24;84.22
12775;BME280;6451;42.630;23.382;2022-09-09T11:58:57;94493.97;;;26.47;86.38
12775;BME280;6451;42.630;23.382;2022-09-09T12:01:37;94464.53;;;26.20;86.45
12775;BME280;6451;42.630;23.382;2022-09-09T12:06:56;94497.59;;;26.82;83.91
12775;BME280;6451;42.630;23.382;2022-09-09T12:09:31;94508.50;;;27.02;81.68
12775;BME280;6451;42.630;23.382;2022-09-09T12:12:24;94505.84;;;26.73;79.60
12775;BME280;6451;42.630;23.382;2022-09-09T12:17:45;94500.72;;;26.33;82.34
12775;BME280;6451;42.630;23.382;2022-09-09T12:20:15;94487.63;;;26.46;84.03
12775;BME280;6451;42.630;23.382;2022-09-09T12:22:59;94477.91;;;26.64;81.62
12775;BME280;6451;42.630;23.382;2022-09-09T12:25:46;94483.22;;;26.96;78.34
12775;BME280;6451;42.630;23.382;2022-09-09T12:28:17;94481.50;;;27.24;76.89
12775;BME280;6451;42.630;23.382;2022-09-09T12:30:51;94467.94;;;27.13;75.03
12775;BME280;6451;42.630;23.382;2022-09-09T12:33:24;94470.06;;;27.09;74.59
12775;BME280;6451;42.630;23.382;2022-09-09T12:35:55;94471.22;;;27.34;74.27
12775;BME280;6451;42.630;23.382;2022-09-09T12:38:32;94467.28;;;27.09;76.88
12775;BME280;6451;42.630;23.382;2022-09-09T12:41:01;94463.09;;;26.79;77.93
12775;BME280;6451;42.630;23.382;2022-09-09T12:43:28;94462.16;;;26.95;78.98
12775;BME280;6451;42.630;23.382;2022-09-09T12:45:57;94460.63;;;27.29;77.89
12775;BME280;6451;42.630;23.382;2022-09-09T12:48:33;94463.72;;;26.96;78.74
12775;BME280;6451;42.630;23.382;2022-09-09T12:51:02;94463.81;;;27.05;79.91
12775;BME280;6451;42.630;23.382;2022-09-09T12:53:34;94337.25;;;25.99;81.64
12775;BME280;6451;42.630;23.382;2022-09-09T12:56:04;94456.50;;;26.86;80.42
12775;BME280;6451;42.630;23.382;2022-09-09T12:58:33;94450.19;;;26.60;82.22
12775;BME280;6451;42.630;23.382;2022-09-09T13:01:02;94318.22;;;26.23;82.13
12775;BME280;6451;42.630;23.382;2022-09-09T13:03:33;94446.56;;;27.10;79.44
12775;BME280;6451;42.630;23.382;2022-09-09T13:06:12;94428.38;;;27.06;77.38
12775;BME280;6451;42.630;23.382;2022-09-09T13:08:39;94435.38;;;27.45;74.61
12775;BME280;6451;42.630;23.382;2022-09-09T13:11:10;94435.88;;;27.53;74.62
12775;BME280;6451;42.630;23.382;2022-09-09T13:13:42;94444.44;;;27.71;75.30
12775;BME280;6451;42.630;23.382;2022-09-09T13:16:20;94429.06;;;27.10;78.46
12775;BME280;6451;42.630;23.382;2022-09-09T13:18:50;94419.41;;;26.89;79.84
12775;BME280;6451;42.630;23.382;2022-09-09T13:21:17;94418.72;;;27.32;78.90
12775;BME280;6451;42.630;23.382;2022-09-09T13:23:49;94426.06;;;27.39;77.24